sensor_id;sensor_type;location;lat;lon;timestamp;P1;durP1;ratioP1;P2;durP2;ratioP2
8626;SDS011;4351;51.422;6.794;2022-11-25T08:01:25;13.60;;;4.00;;
8626;SDS011;4351;51.422;6.794;2022-11-25T08:03:53;9.97;;;3.90;;
8626;SDS011;4351;51.422;6.794;2022-11-25T08:06:32;12.07;;;3.83;;
8626;SDS011;4351;51.422;6.794;2022-11-25T08:09:04;11.13;;;3.70;;
8626;SDS011;4351;51.422;6.794;2022-11-25T08:11:33;14.20;;;3.77;;
8626;SDS011;4351;51.422;6.794;2022-11-25T08:14:04;14.93;;;4.00;;
8626;SDS011;4351;51.422;6.794;2022-11-25T08:16:33;13.43;;;3.87;;
8626;SDS011;4351;51.422;6.794;2022-11-25T08:19:03;9.23;;;3.50;;
8626;SDS011;4351;51.422;6.794;2022-11-25T08:21:33;11.17;;;3.70;;
8626;SDS011;4351;51.422;6.794;2022-11-25T08:24:08;12.23;;;3.70;;
8626;SDS011;4351;51.422;6.794;2022-11-25T08:26:39;9.43;;;3.60;;
8626;SDS011;4351;51.422;6.794;2022-11-25T08:29:09;10.83;;;3.77;;
8626;SDS011;4351;51.422;6.794;2022-11-25T08:31:41;15.30;;;4.03;;
8626;SDS011;4351;51.422;6.794;2022-11-25T08:34:10;12.47;;;4.07;;
8626;SDS011;4351;51.422;6.794;2022-11-25T08:36:46;11.63;;;4.00;;
8626;SDS011;4351;51.422;6.794;2022-11-25T08:39:15;8.80;;;4.10;;
8626;SDS011;4351;51.422;6.794;2022-11-25T08:42:06;12.73;;;3.80;;
8626;SDS011;4351;51.422;6.794;2022-11-25T08:44:34;10.03;;;3.83;;
8626;SDS011;4351;51.422;6.794;2022-11-25T08:47:05;9.63;;;5.37;;
8626;SDS011;4351;51.422;6.794;2022-11-25T08:49:33;11.30;;;4.07;;
8626;SDS011;4351;51.422;6.794;2022-11-25T08:52:06;11.83;;;3.90;;
8626;SDS011;4351;51.422;6.794;2022-11-25T08:54:35;9.57;;;3.80;;
8626;SDS011;4351;51.422;6.794;2022-11-25T08:57:04;11.93;;;4.03;;
8626;SDS011;4351;51.422;6.794;2022-11-25T08:59:32;12.13;;;4.53;;
8626;SDS011;4351;51.422;6.794;2022-11-25T09:02:01;13.27;;;4.23;;
8626;SDS011;4351;51.422;6.794;2022-11-25T09:04:30;17.37;;;4.37;;
8626;SDS011;4351;51.422;6.794;2022-11-25T09:06:59;12.97;;;4.47;;
8626;SDS011;4351;51.422;6.794;2022-11-25T09:09:27;13.00;;;4.40;;
8626;SDS011;4351;51.422;6.794;2022-11-25T09:11:59;16.03;;;4.40;;
8626;SDS011;4351;51.422;6.794;2022-11-25T09:14:27;8.33;;;4.00;;
8626;SDS011;4351;51.422;6.794;2022-11-25T09:17:02;15.70;;;4.30;;
8626;SDS011;4351;51.422;6.794;2022-11-25T09:19:42;8.20;;;3.60;;
8626;SDS011;4351;51.422;6.794;2022-11-25T09:22:11;10.53;;;3.47;;
8626;SDS011;4351;51.422;6.794;2022-11-25T09:24:39;10.53;;;3.63;;
8626;SDS011;4351;51.422;6.794;2022-11-25T09:27:13;12.33;;;3.87;;
8626;SDS011;4351;51.422;6.794;2022-11-25T09:29:41;11.30;;;4.33;;
8626;SDS011;4351;51.422;6.794;2022-11-25T09:32:09;11.77;;;4.03;;
8626;SDS011;4351;51.422;6.794;2022-11-25T09:34:38;9.17;;;3.17;;
8626;SDS011;4351;51.422;6.794;2022-11-25T09:37:09;11.43;;;3.37;;
8626;SDS011;4351;51.422;6.794;2022-11-25T09:39:40;10.67;;;4.10;;
8626;SDS011;4351;51.422;6.794;2022-11-25T09:42:13;11.27;;;4.03;;
8626;SDS011;4351;51.422;6.794;2022-11-25T09:45:12;11.87;;;4.20;;
8626;SDS011;4351;51.422;6.794;2022-11-25T09:48:07;15.50;;;3.80;;
8626;SDS011;4351;51.422;6.794;2022-11-25T09:50:49;10.93;;;3.80;;
8626;SDS011;4351;51.422;6.794;2022-11-25T09:53:33;13.27;;;3.77;;
8626;SDS011;4351;51.422;6.794;2022-11-25T09:56:21;9.90;;;3.53;;
8626;SDS011;4351;51.422;6.794;2022-11-25T09:58:56;8.53;;;3.80;;
8626;SDS011;4351;51.422;6.794;2022-11-25T10:01:29;12.30;;;3.60;;
8626;SDS011;4351;51.422;6.794;2022-11-25T10:04:01;13.57;;;3.70;;
8626;SDS011;4351;51.422;6.794;2022-11-25T10:06:42;11.60;;;3.50;;
8626;SDS011;4351;51.422;6.794;2022-11-25T10:09:25;8.63;;;3.37;;
8626;SDS011;4351;51.422;6.794;2022-11-25T10:11:55;10.93;;;3.40;;
8626;SDS011;4351;51.422;6.794;2022-11-25T10:14:34;11.37;;;2.83;;
8626;SDS011;4351;51.422;6.794;2022-11-25T10:17:11;11.00;;;3.33;;
8626;SDS011;4351;51.422;6.794;2022-11-25T10:19:47;9.80;;;3.20;;
8626;SDS011;4351;51.422;6.794;2022-11-25T10:22:26;10.30;;;3.10;;
8626;SDS011;4351;51.422;6.794;2022-11-25T10:25:01;10.97;;;3.43;;
8626;SDS011;4351;51.422;6.794;2022-11-25T10:27:40;9.63;;;2.77;;
8626;SDS011;4351;51.422;6.794;2022-11-25T10:30:14;8.37;;;2.93;;
8626;SDS011;4351;51.422;6.794;2022-11-25T10:32:49;10.47;;;3.30;;
8626;SDS011;4351;51.422;6.794;2022-11-25T10:35:33;11.73;;;3.40;;
8626;SDS011;4351;51.422;6.794;2022-11-25T10:38:06;10.50;;;3.00;;
8626;SDS011;4351;51.422;6.794;2022-11-25T10:40:49;10.83;;;3.67;;
8626;SDS011;4351;51.422;6.794;2022-11-25T10:43:19;8.43;;;2.80;;
8626;SDS011;4351;51.422;6.794;2022-11-25T10:45:48;8.83;;;3.03;;
8626;SDS011;4351;51.422;6.794;2022-11-25T10:48:24;10.93;;;3.10;;
8626;SDS011;4351;51.422;6.794;2022-11-25T10:51:13;9.87;;;3.47;;
8626;SDS011;4351;51.422;6.794;2022-11-25T10:54:08;10.63;;;3.13;;
8626;SDS011;4351;51.422;6.794;2022-11-25T10:56:43;12.67;;;3.80;;
8626;SDS011;4351;51.422;6.794;2022-11-25T10:59:24;10.77;;;4.03;;
8626;SDS011;4351;51.422;6.794;2022-11-25T11:02:04;13.80;;;3.83;;
8626;SDS011;4351;51.422;6.794;2022-11-25T11:04:58;11.63;;;3.97;;
8626;SDS011;4351;51.422;6.794;2022-11-25T11:07:30;12.80;;;3.63;;
8626;SDS011;4351;51.422;6.794;2022-11-25T11:10:13;13.47;;;3.80;;
8626;SDS011;4351;51.422;6.794;2022-11-25T11:12:53;13.63;;;3.67;;
8626;SDS011;4351;51.422;6.794;2022-11-25T11:15:24;16.27;;;4.90;;
8626;SDS011;4351;51.422;6.794;2022-11-25T11:17:54;12.97;;;3.70;;
8626;SDS011;4351;51.422;6.794;2022-11-25T11:20:23;11.77;;;3.63;;
8626;SDS011;4351;51.422;6.794;2022-11-25T11:22:54;15.77;;;3.40;;
8626;SDS011;4351;51.422;6.794;2022-11-25T11:25:34;8.73;;;3.20;;
8626;SDS011;4351;51.422;6.794;2022-11-25T11:28:22;12.13;;;3.83;;
8626;SDS011;4351;51.422;6.794;2022-11-25T11:30:53;14.50;;;4.17;;
8626;SDS011;4351;51.422;6.794;2022-11-25T11:33:27;10.03;;;3.33;;
8626;SDS011;4351;51.422;6.794;2022-11-25T11:36:00;15.90;;;4.20;;
8626;SDS011;4351;51.422;6.794;2022-11-25T11:38:41;19.40;;;4.97;;
8626;SDS011;4351;51.422;6.794;2022-11-25T11:41:20;11.43;;;4.17;;
8626;SDS011;4351;51.422;6.794;2022-11-25T11:44:04;15.13;;;3.50;;
8626;SDS011;4351;51.422;6.794;2022-11-25T11:46:42;11.70;;;2.87;;
8626;SDS011;4351;51.422;6.794;2022-11-25T11:49:40;8.87;;;2.80;;
8626;SDS011;4351;51.422;6.794;2022-11-25T11:52:22;17.83;;;4.00;;
8626;SDS011;4351;51.422;6.794;2022-11-25T11:54:59;9.63;;;2.90;;
8626;SDS011;4351;51.422;6.794;2022-11-25T11:57:31;13.60;;;3.93;;
8626;SDS011;4351;51.422;6.794;2022-11-25T12:00:09;11.23;;;2.90;;
8626;SDS011;4351;51.422;6.794;2022-11-25T12:02:48;17.57;;;3.53;;
8626;SDS011;4351;51.422;6.794;2022-11-25T12:05:23;15.27;;;3.23;;
8626;SDS011;4351;51.422;6.794;2022-11-25T12:07:57;11.63;;;2.90;;
8626;SDS011;4351;51.422;6.794;2022-11-25T12:10:35;12.37;;;3.33;;
8626;SDS011;4351;51.422;6.794;2022-11-25T12:13:13;11.57;;;2.87;;
8626;SDS011;4351;51.422;6.794;2022-11-25T12:15:51;11.73;;;2.73;;
8626;SDS011;4351;51.422;6.794;2022-11-25T12:18:30;14.00;;;2.90;;
8626;SDS011;4351;51.422;6.794;2022-11-25T12:21:06;8.77;;;2.77;;
8626;SDS011;4351;51.422;6.794;2022-11-25T12:23:43;9.63;;;2.83;;
8626;SDS011;4351;51.422;6.794;2022-11-25T12:26:21;11.60;;;2.77;;
8626;SDS011;4351;51.422;6.794;2022-11-25T12:29:01;10.67;;;3.10;;
8626;SDS011;4351;51.422;6.794;2022-11-25T12:31:43;9.20;;;3.03;;
8626;SDS011;4351;51.422;6.794;2022-11-25T12:34:21;11.00;;;3.03;;
8626;SDS011;4351;51.422;6.794;2022-11-25T12:37:01;11.67;;;3.03;;
8626;SDS011;4351;51.422;6.794;2022-11-25T12:39:43;11.17;;;3.10;;
8626;SDS011;4351;51.422;6.794;2022-11-25T12:42:17;10.70;;;2.73;;
8626;SDS011;4351;51.422;6.794;2022-11-25T12:44:53;12.27;;;2.80;;
8626;SDS011;4351;51.422;6.794;2022-11-25T12:47:30;9.03;;;2.47;;
8626;SDS011;4351;51.422;6.794;2022-11-25T12:49:59;9.90;;;2.13;;
8626;SDS011;4351;51.422;6.794;2022-11-25T12:52:39;11.50;;;3.00;;
8626;SDS011;4351;51.422;6.794;2022-11-25T12:55:15;14.00;;;3.00;;
8626;SDS011;4351;51.422;6.794;2022-11-25T12:57:48;10.60;;;2.50;;
8626;SDS011;4351;51.422;6.794;2022-11-25T13:00:45;8.93;;;2.50;;
8626;SDS011;4351;51.422;6.794;2022-11-25T13:03:38;10.50;;;2.60;;
8626;SDS011;4351;51.422;6.794;2022-11-25T13:06:35;11.30;;;2.77;;
8626;SDS011;4351;51.422;6.794;2022-11-25T13:09:26;8.10;;;2.57;;
8626;SDS011;4351;51.422;6.794;2022-11-25T13:12:08;9.37;;;2.20;;
8626;SDS011;4351;51.422;6.794;2022-11-25T13:14:59;13.53;;;2.67;;
8626;SDS011;4351;51.422;6.794;2022-11-25T13:17:40;10.80;;;2.40;;
8626;SDS011;4351;51.422;6.794;2022-11-25T13:23:19;12.33;;;2.57;;
8626;SDS011;4351;51.422;6.794;2022-11-25T13:25:50;7.47;;;2.30;;
8626;SDS011;4351;51.422;6.794;2022-11-25T13:28:27;8.50;;;2.47;;
8626;SDS011;4351;51.422;6.794;2022-11-25T13:31:16;8.63;;;2.37;;
8626;SDS011;4351;51.422;6.794;2022-11-25T13:33:55;16.83;;;3.20;;
8626;SDS011;4351;51.422;6.794;2022-11-25T13:36:43;11.93;;;2.83;;
8626;SDS011;4351;51.422;6.794;2022-11-25T13:39:14;10.80;;;2.90;;
8626;SDS011;4351;51.422;6.794;2022-11-25T13:41:57;7.07;;;2.10;;
8626;SDS011;4351;51.422;6.794;2022-11-25T13:44:27;14.77;;;3.20;;
8626;SDS011;4351;51.422;6.794;2022-11-25T13:49:59;10.17;;;2.30;;
8626;SDS011;4351;51.422;6.794;2022-11-25T13:52:34;8.27;;;2.67;;
8626;SDS011;4351;51.422;6.794;2022-11-25T13:55:16;7.70;;;2.10;;
8626;SDS011;4351;51.422;6.794;2022-11-25T13:57:59;13.13;;;2.83;;
8626;SDS011;4351;51.422;6.794;2022-11-25T14:00:47;12.70;;;2.70;;
8626;SDS011;4351;51.422;6.794;2022-11-25T14:03:45;8.23;;;2.70;;
8626;SDS011;4351;51.422;6.794;2022-11-25T14:06:21;10.53;;;2.60;;
8626;SDS011;4351;51.422;6.794;2022-11-25T14:09:12;9.90;;;2.73;;
8626;SDS011;4351;51.422;6.794;2022-11-25T14:14:54;10.17;;;2.50;;
8626;SDS011;4351;51.422;6.794;2022-11-25T14:18:07;10.10;;;2.83;;
8626;SDS011;4351;51.422;6.794;2022-11-25T14:21:26;8.57;;;2.73;;
8626;SDS011;4351;51.422;6.794;2022-11-25T14:24:24;11.50;;;3.03;;
8626;SDS011;4351;51.422;6.794;2022-11-25T14:27:00;8.83;;;2.70;;
8626;SDS011;4351;51.422;6.794;2022-11-25T14:29:34;7.37;;;2.43;;
8626;SDS011;4351;51.422;6.794;2022-11-25T14:32:07;11.93;;;2.47;;
8626;SDS011;4351;51.422;6.794;2022-11-25T14:34:40;11.13;;;2.60;;
8626;SDS011;4351;51.422;6.794;2022-11-25T14:37:12;6.73;;;2.27;;
8626;SDS011;4351;51.422;6.794;2022-11-25T14:39:48;9.23;;;2.10;;
8626;SDS011;4351;51.422;6.794;2022-11-25T14:42:20;8.77;;;2.40;;
8626;SDS011;4351;51.422;6.794;2022-11-25T14:44:53;10.70;;;2.60;;
8626;SDS011;4351;51.422;6.794;2022-11-25T14:47:28;11.50;;;2.73;;
8626;SDS011;4351;51.422;6.794;2022-11-25T14:53:04;10.27;;;2.80;;
8626;SDS011;4351;51.422;6.794;2022-11-25T14:55:35;10.47;;;2.30;;
8626;SDS011;4351;51.422;6.794;2022-11-25T14:58:08;12.47;;;2.57;;
8626;SDS011;4351;51.422;6.794;2022-11-25T15:00:57;11.10;;;2.90;;
8626;SDS011;4351;51.422;6.794;2022-11-25T15:06:51;10.93;;;3.10;;
8626;SDS011;4351;51.422;6.794;2022-11-25T15:09:23;14.37;;;3.03;;
8626;SDS011;4351;51.422;6.794;2022-11-25T15:11:55;10.60;;;2.53;;
8626;SDS011;4351;51.422;6.794;2022-11-25T15:14:27;11.60;;;3.20;;
8626;SDS011;4351;51.422;6.794;2022-11-25T15:16:59;9.57;;;2.87;;
8626;SDS011;4351;51.422;6.794;2022-11-25T15:19:39;10.37;;;2.73;;
8626;SDS011;4351;51.422;6.794;2022-11-25T15:22:16;9.60;;;2.60;;
8626;SDS011;4351;51.422;6.794;2022-11-25T15:24:54;7.23;;;2.73;;
8626;SDS011;4351;51.422;6.794;2022-11-25T15:27:43;10.77;;;2.97;;
8626;SDS011;4351;51.422;6.794;2022-11-25T15:30:17;8.67;;;3.30;;
8626;SDS011;4351;51.422;6.794;2022-11-25T15:32:49;9.07;;;2.67;;
8626;SDS011;4351;51.422;6.794;2022-11-25T15:35:21;13.53;;;2.50;;
8626;SDS011;4351;51.422;6.794;2022-11-25T15:38:02;8.63;;;2.47;;
8626;SDS011;4351;51.422;6.794;2022-11-25T15:41:28;7.63;;;2.50;;
8626;SDS011;4351;51.422;6.794;2022-11-25T15:44:04;10.33;;;2.77;;
8626;SDS011;4351;51.422;6.794;2022-11-25T15:46:36;9.27;;;2.67;;
8626;SDS011;4351;51.422;6.794;2022-11-25T15:49:14;10.30;;;2.50;;
8626;SDS011;4351;51.422;6.794;2022-11-25T15:51:48;6.80;;;2.13;;
8626;SDS011;4351;51.422;6.794;2022-11-25T15:54:20;10.93;;;2.70;;
8626;SDS011;4351;51.422;6.794;2022-11-25T15:56:54;11.27;;;2.73;;
8626;SDS011;4351;51.422;6.794;2022-11-25T15:59:44;8.07;;;2.80;;
8626;SDS011;4351;51.422;6.794;2022-11-25T16:02:30;11.07;;;2.50;;
8626;SDS011;4351;51.422;6.794;2022-11-25T16:05:15;8.80;;;2.67;;
8626;SDS011;4351;51.422;6.794;2022-11-25T16:11:10;12.50;;;2.93;;
8626;SDS011;4351;51.422;6.794;2022-11-25T16:13:50;7.70;;;3.00;;
8626;SDS011;4351;51.422;6.794;2022-11-25T16:16:41;9.17;;;3.00;;
8626;SDS011;4351;51.422;6.794;2022-11-25T16:19:16;9.53;;;2.83;;
8626;SDS011;4351;51.422;6.794;2022-11-25T16:21:54;8.93;;;3.03;;
8626;SDS011;4351;51.422;6.794;2022-11-25T16:24:35;13.73;;;2.90;;
8626;SDS011;4351;51.422;6.794;2022-11-25T16:27:14;9.93;;;2.83;;
8626;SDS011;4351;51.422;6.794;2022-11-25T16:29:53;13.40;;;3.13;;
8626;SDS011;4351;51.422;6.794;2022-11-25T16:32:37;11.90;;;3.27;;
8626;SDS011;4351;51.422;6.794;2022-11-25T16:35:11;8.90;;;2.70;;
8626;SDS011;4351;51.422;6.794;2022-11-25T16:40:34;11.40;;;3.07;;
8626;SDS011;4351;51.422;6.794;2022-11-25T16:43:12;6.77;;;2.83;;
8626;SDS011;4351;51.422;6.794;2022-11-25T16:45:47;8.13;;;2.50;;
8626;SDS011;4351;51.422;6.794;2022-11-25T16:48:19;9.30;;;2.60;;
8626;SDS011;4351;51.422;6.794;2022-11-25T16:50:51;9.80;;;2.87;;
8626;SDS011;4351;51.422;6.794;2022-11-25T16:53:30;8.00;;;2.60;;
8626;SDS011;4351;51.422;6.794;2022-11-25T16:55:58;8.10;;;2.70;;
8626;SDS011;4351;51.422;6.794;2022-11-25T16:58:29;14.97;;;2.90;;
8626;SDS011;4351;51.422;6.794;2022-11-25T17:00:57;10.27;;;2.70;;
8626;SDS011;4351;51.422;6.794;2022-11-25T17:03:26;12.33;;;3.20;;
8626;SDS011;4351;51.422;6.794;2022-11-25T17:05:55;13.07;;;3.30;;
8626;SDS011;4351;51.422;6.794;2022-11-25T17:08:25;11.93;;;3.10;;
8626;SDS011;4351;51.422;6.794;2022-11-25T17:10:53;9.47;;;3.23;;
8626;SDS011;4351;51.422;6.794;2022-11-25T17:13:25;12.07;;;3.53;;
8626;SDS011;4351;51.422;6.794;2022-11-25T17:15:53;8.73;;;3.47;;
8626;SDS011;4351;51.422;6.794;2022-11-25T17:18:28;9.47;;;3.03;;
8626;SDS011;4351;51.422;6.794;2022-11-25T17:20:58;8.07;;;3.60;;
8626;SDS011;4351;51.422;6.794;2022-11-25T17:23:26;12.93;;;3.87;;
8626;SDS011;4351;51.422;6.794;2022-11-25T17:25:55;7.17;;;3.30;;
8626;SDS011;4351;51.422;6.794;2022-11-25T17:28:23;14.20;;;3.93;;
8626;SDS011;4351;51.422;6.794;2022-11-25T17:30:51;13.47;;;2.93;;
8626;SDS011;4351;51.422;6.794;2022-11-25T17:33:20;9.80;;;3.43;;
8626;SDS011;4351;51.422;6.794;2022-11-25T17:35:49;11.57;;;3.60;;
8626;SDS011;4351;51.422;6.794;2022-11-25T17:38:19;15.20;;;4.03;;
8626;SDS011;4351;51.422;6.794;2022-11-25T17:40:47;12.33;;;3.73;;
8626;SDS011;4351;51.422;6.794;2022-11-25T17:43:16;12.07;;;3.77;;
8626;SDS011;4351;51.422;6.794;2022-11-25T17:45:46;9.23;;;3.70;;
8626;SDS011;4351;51.422;6.794;2022-11-25T17:48:17;11.40;;;3.83;;
8626;SDS011;4351;51.422;6.794;2022-11-25T17:50:45;8.70;;;3.63;;
8626;SDS011;4351;51.422;6.794;2022-11-25T17:53:15;10.40;;;4.63;;
8626;SDS011;4351;51.422;6.794;2022-11-25T17:56:08;9.60;;;3.57;;
8626;SDS011;4351;51.422;6.794;2022-11-25T17:58:44;9.57;;;3.70;;
8626;SDS011;4351;51.422;6.794;2022-11-25T18:01:12;6.37;;;3.13;;
8626;SDS011;4351;51.422;6.794;2022-11-25T18:03:40;16.87;;;3.90;;
8626;SDS011;4351;51.422;6.794;2022-11-25T18:06:08;11.30;;;3.90;;
8626;SDS011;4351;51.422;6.794;2022-11-25T18:08:41;10.80;;;3.50;;
8626;SDS011;4351;51.422;6.794;2022-11-25T18:11:10;13.77;;;3.97;;
8626;SDS011;4351;51.422;6.794;2022-11-25T18:13:41;12.40;;;3.70;;
8626;SDS011;4351;51.422;6.794;2022-11-25T18:16:11;13.73;;;4.20;;
8626;SDS011;4351;51.422;6.794;2022-11-25T18:18:41;11.33;;;4.33;;
8626;SDS011;4351;51.422;6.794;2022-11-25T18:21:09;10.90;;;3.80;;
8626;SDS011;4351;51.422;6.794;2022-11-25T18:36:17;10.20;;;3.57;;
8626;SDS011;4351;51.422;6.794;2022-11-25T18:38:45;14.17;;;3.53;;
8626;SDS011;4351;51.422;6.794;2022-11-25T18:41:17;10.90;;;3.83;;
8626;SDS011;4351;51.422;6.794;2022-11-25T18:43:48;8.33;;;3.60;;
8626;SDS011;4351;51.422;6.794;2022-11-25T18:46:17;7.23;;;3.00;;
8626;SDS011;4351;51.422;6.794;2022-11-25T18:48:45;7.30;;;2.83;;
8626;SDS011;4351;51.422;6.794;2022-11-25T18:51:14;7.57;;;3.10;;
8626;SDS011;4351;51.422;6.794;2022-11-25T18:53:43;10.53;;;2.87;;
8626;SDS011;4351;51.422;6.794;2022-11-25T18:56:11;10.73;;;2.80;;
8626;SDS011;4351;51.422;6.794;2022-11-25T18:58:44;7.00;;;2.87;;
8626;SDS011;4351;51.422;6.794;2022-11-25T19:01:17;6.00;;;2.70;;
8626;SDS011;4351;51.422;6.794;2022-11-25T19:03:48;10.57;;;2.80;;
8626;SDS011;4351;51.422;6.794;2022-11-25T19:06:16;7.83;;;2.77;;
8626;SDS011;4351;51.422;6.794;2022-11-25T19:08:47;6.43;;;2.73;;
8626;SDS011;4351;51.422;6.794;2022-11-25T19:11:18;5.70;;;2.50;;
8626;SDS011;4351;51.422;6.794;2022-11-25T19:13:53;7.73;;;2.70;;
8626;SDS011;4351;51.422;6.794;2022-11-25T19:16:28;8.13;;;2.57;;
8626;SDS011;4351;51.422;6.794;2022-11-25T19:18:57;7.17;;;3.47;;
8626;SDS011;4351;51.422;6.794;2022-11-25T19:21:25;7.50;;;3.60;;
8626;SDS011;4351;51.422;6.794;2022-11-25T19:23:57;11.93;;;3.93;;
8626;SDS011;4351;51.422;6.794;2022-11-25T19:26:26;10.57;;;4.00;;
8626;SDS011;4351;51.422;6.794;2022-11-25T19:28:58;7.70;;;3.73;;
8626;SDS011;4351;51.422;6.794;2022-11-25T19:31:30;12.40;;;3.70;;
8626;SDS011;4351;51.422;6.794;2022-11-25T19:34:00;11.83;;;3.70;;
8626;SDS011;4351;51.422;6.794;2022-11-25T19:36:28;14.40;;;4.40;;
8626;SDS011;4351;51.422;6.794;2022-11-25T19:38:58;13.33;;;4.93;;
8626;SDS011;4351;51.422;6.794;2022-11-25T19:41:26;15.80;;;4.63;;
8626;SDS011;4351;51.422;6.794;2022-11-25T19:43:54;12.87;;;3.90;;
8626;SDS011;4351;51.422;6.794;2022-11-25T19:46:23;17.97;;;4.70;;
8626;SDS011;4351;51.422;6.794;2022-11-25T19:49:02;15.07;;;4.40;;
8626;SDS011;4351;51.422;6.794;2022-11-25T19:51:32;13.27;;;4.43;;
8626;SDS011;4351;51.422;6.794;2022-11-25T19:54:02;14.40;;;4.60;;
8626;SDS011;4351;51.422;6.794;2022-11-25T19:56:30;10.77;;;4.17;;
8626;SDS011;4351;51.422;6.794;2022-11-25T19:58:59;10.50;;;4.13;;
8626;SDS011;4351;51.422;6.794;2022-11-25T20:01:29;12.27;;;4.27;;
8626;SDS011;4351;51.422;6.794;2022-11-25T20:03:59;11.23;;;4.67;;
8626;SDS011;4351;51.422;6.794;2022-11-25T20:06:29;14.50;;;4.37;;
8626;SDS011;4351;51.422;6.794;2022-11-25T20:08:58;13.13;;;4.77;;
8626;SDS011;4351;51.422;6.794;2022-11-25T20:11:34;13.53;;;4.63;;
8626;SDS011;4351;51.422;6.794;2022-11-25T20:14:02;14.87;;;5.00;;
8626;SDS011;4351;51.422;6.794;2022-11-25T20:16:32;15.13;;;5.03;;
8626;SDS011;4351;51.422;6.794;2022-11-25T20:19:02;14.47;;;4.90;;
8626;SDS011;4351;51.422;6.794;2022-11-25T20:21:33;13.27;;;4.97;;
8626;SDS011;4351;51.422;6.794;2022-11-25T20:24:04;13.37;;;5.47;;
8626;SDS011;4351;51.422;6.794;2022-11-25T20:26:39;10.40;;;5.73;;
8626;SDS011;4351;51.422;6.794;2022-11-25T20:29:12;14.07;;;5.70;;
8626;SDS011;4351;51.422;6.794;2022-11-25T20:31:42;16.40;;;6.13;;
8626;SDS011;4351;51.422;6.794;2022-11-25T20:34:10;18.70;;;6.20;;
8626;SDS011;4351;51.422;6.794;2022-11-25T20:36:39;17.67;;;6.33;;
8626;SDS011;4351;51.422;6.794;2022-11-25T20:39:10;18.83;;;6.10;;
8626;SDS011;4351;51.422;6.794;2022-11-25T20:41:44;20.07;;;6.43;;
8626;SDS011;4351;51.422;6.794;2022-11-25T20:44:14;12.43;;;6.67;;
8626;SDS011;4351;51.422;6.794;2022-11-25T20:46:42;17.10;;;6.30;;
8626;SDS011;4351;51.422;6.794;2022-11-25T20:49:15;15.80;;;6.60;;
8626;SDS011;4351;51.422;6.794;2022-11-25T20:51:48;18.77;;;6.77;;
8626;SDS011;4351;51.422;6.794;2022-11-25T20:54:16;15.13;;;6.43;;
8626;SDS011;4351;51.422;6.794;2022-11-25T20:56:46;19.13;;;6.13;;
8626;SDS011;4351;51.422;6.794;2022-11-25T21:01:46;16.20;;;6.90;;
8626;SDS011;4351;51.422;6.794;2022-11-25T21:04:14;16.00;;;6.77;;
8626;SDS011;4351;51.422;6.794;2022-11-25T21:06:43;12.37;;;6.13;;
8626;SDS011;4351;51.422;6.794;2022-11-25T21:09:13;14.47;;;7.00;;
8626;SDS011;4351;51.422;6.794;2022-11-25T21:11:46;16.40;;;7.57;;
8626;SDS011;4351;51.422;6.794;2022-11-25T21:14:15;16.30;;;7.37;;
8626;SDS011;4351;51.422;6.794;2022-11-25T21:16:45;15.47;;;7.13;;
8626;SDS011;4351;51.422;6.794;2022-11-25T21:19:14;14.90;;;6.70;;
8626;SDS011;4351;51.422;6.794;2022-11-25T21:21:44;15.17;;;6.63;;
8626;SDS011;4351;51.422;6.794;2022-11-25T21:24:20;14.57;;;6.70;;
8626;SDS011;4351;51.422;6.794;2022-11-25T21:26:55;14.73;;;6.90;;
8626;SDS011;4351;51.422;6.794;2022-11-25T21:30:22;20.53;;;7.37;;
8626;SDS011;4351;51.422;6.794;2022-11-25T21:32:52;19.77;;;7.33;;
8626;SDS011;4351;51.422;6.794;2022-11-25T21:35:22;19.33;;;7.93;;
8626;SDS011;4351;51.422;6.794;2022-11-25T21:37:53;16.37;;;7.83;;
8626;SDS011;4351;51.422;6.794;2022-11-25T21:40:33;17.17;;;7.77;;
8626;SDS011;4351;51.422;6.794;2022-11-25T21:43:04;17.40;;;8.40;;
8626;SDS011;4351;51.422;6.794;2022-11-25T21:45:48;18.10;;;8.30;;
8626;SDS011;4351;51.422;6.794;2022-11-25T21:48:20;13.63;;;7.57;;
8626;SDS011;4351;51.422;6.794;2022-11-25T21:50:49;15.83;;;8.00;;
8626;SDS011;4351;51.422;6.794;2022-11-25T21:53:17;18.70;;;8.33;;
8626;SDS011;4351;51.422;6.794;2022-11-25T21:55:45;17.57;;;7.83;;
8626;SDS011;4351;51.422;6.794;2022-11-25T21:58:14;21.80;;;8.83;;
8626;SDS011;4351;51.422;6.794;2022-11-25T22:00:45;12.63;;;7.13;;
8626;SDS011;4351;51.422;6.794;2022-11-25T22:03:17;19.17;;;7.77;;
8626;SDS011;4351;51.422;6.794;2022-11-25T22:05:46;17.03;;;7.00;;
8626;SDS011;4351;51.422;6.794;2022-11-25T22:08:15;17.93;;;7.70;;
8626;SDS011;4351;51.422;6.794;2022-11-25T22:10:44;15.37;;;6.87;;
8626;SDS011;4351;51.422;6.794;2022-11-25T22:13:14;15.90;;;6.60;;
8626;SDS011;4351;51.422;6.794;2022-11-25T22:15:45;15.00;;;7.07;;
8626;SDS011;4351;51.422;6.794;2022-11-25T22:18:20;18.40;;;6.63;;
8626;SDS011;4351;51.422;6.794;2022-11-25T22:20:54;16.50;;;6.40;;
8626;SDS011;4351;51.422;6.794;2022-11-25T22:23:22;15.43;;;7.07;;
8626;SDS011;4351;51.422;6.794;2022-11-25T22:25:50;17.53;;;6.60;;
8626;SDS011;4351;51.422;6.794;2022-11-25T22:28:19;17.50;;;7.23;;
8626;SDS011;4351;51.422;6.794;2022-11-25T22:30:51;15.57;;;6.50;;
8626;SDS011;4351;51.422;6.794;2022-11-25T22:33:27;16.73;;;7.10;;
8626;SDS011;4351;51.422;6.794;2022-11-25T22:35:57;15.03;;;6.77;;
8626;SDS011;4351;51.422;6.794;2022-11-25T22:38:25;16.37;;;6.67;;
8626;SDS011;4351;51.422;6.794;2022-11-25T22:40:55;17.33;;;6.70;;
8626;SDS011;4351;51.422;6.794;2022-11-25T22:43:25;13.87;;;6.00;;
8626;SDS011;4351;51.422;6.794;2022-11-25T22:45:55;12.57;;;5.93;;
8626;SDS011;4351;51.422;6.794;2022-11-25T22:48:27;11.37;;;5.50;;
8626;SDS011;4351;51.422;6.794;2022-11-25T22:50:58;22.23;;;8.23;;
8626;SDS011;4351;51.422;6.794;2022-11-25T22:53:26;19.27;;;8.50;;
8626;SDS011;4351;51.422;6.794;2022-11-25T22:55:54;17.90;;;7.43;;
8626;SDS011;4351;51.422;6.794;2022-11-25T22:58:24;13.07;;;6.47;;
8626;SDS011;4351;51.422;6.794;2022-11-25T23:00:53;16.93;;;7.47;;
8626;SDS011;4351;51.422;6.794;2022-11-25T23:03:23;16.80;;;6.30;;
8626;SDS011;4351;51.422;6.794;2022-11-25T23:05:54;14.93;;;6.33;;
8626;SDS011;4351;51.422;6.794;2022-11-25T23:08:24;20.17;;;7.80;;
8626;SDS011;4351;51.422;6.794;2022-11-25T23:10:53;15.30;;;7.53;;
8626;SDS011;4351;51.422;6.794;2022-11-25T23:13:23;14.57;;;6.67;;
8626;SDS011;4351;51.422;6.794;2022-11-25T23:15:52;17.73;;;7.23;;
8626;SDS011;4351;51.422;6.794;2022-11-25T23:18:23;20.13;;;7.13;;
8626;SDS011;4351;51.422;6.794;2022-11-25T23:20:59;15.37;;;6.10;;
8626;SDS011;4351;51.422;6.794;2022-11-25T23:23:27;15.27;;;6.83;;
8626;SDS011;4351;51.422;6.794;2022-11-25T23:25:57;14.80;;;6.53;;
8626;SDS011;4351;51.422;6.794;2022-11-25T23:28:25;12.37;;;6.87;;
8626;SDS011;4351;51.422;6.794;2022-11-25T23:30:54;15.37;;;6.60;;
8626;SDS011;4351;51.422;6.794;2022-11-25T23:33:26;16.07;;;6.97;;
8626;SDS011;4351;51.422;6.794;2022-11-25T23:35:56;13.73;;;6.17;;
8626;SDS011;4351;51.422;6.794;2022-11-25T23:38:30;14.70;;;6.57;;
8626;SDS011;4351;51.422;6.794;2022-11-25T23:40:58;14.93;;;6.73;;
8626;SDS011;4351;51.422;6.794;2022-11-25T23:43:26;14.77;;;6.43;;
8626;SDS011;4351;51.422;6.794;2022-11-25T23:45:54;14.47;;;6.53;;
8626;SDS011;4351;51.422;6.794;2022-11-25T23:48:23;16.63;;;7.30;;
8626;SDS011;4351;51.422;6.794;2022-11-25T23:50:55;12.63;;;6.40;;
8626;SDS011;4351;51.422;6.794;2022-11-25T23:53:26;18.50;;;7.00;;
8626;SDS011;4351;51.422;6.794;2022-11-25T23:55:56;19.57;;;7.63;;
8626;SDS011;4351;51.422;6.794;2022-11-25T23:58:24;16.87;;;6.47;;
